sensor_id;sensor_type;location;lat;lon;timestamp;P1;durP1;ratioP1;P2;durP2;ratioP2
6133;SDS011;3098;42.678;23.364;2023-05-16T00:01:18;26.92;;;13.40;;
6133;SDS011;3098;42.678;23.364;2023-05-16T00:03:46;26.67;;;13.38;;
6133;SDS011;3098;42.678;23.364;2023-05-16T00:06:13;26.42;;;13.75;;
6133;SDS011;3098;42.678;23.364;2023-05-16T00:08:41;24.30;;;13.43;;
6133;SDS011;3098;42.678;23.364;2023-05-16T00:11:09;23.52;;;13.45;;
6133;SDS011;3098;42.678;23.364;2023-05-16T00:13:37;24.20;;;13.50;;
6133;SDS011;3098;42.678;23.364;2023-05-16T00:16:06;30.67;;;14.60;;
6133;SDS011;3098;42.678;23.364;2023-05-16T00:18:34;23.42;;;12.85;;
6133;SDS011;3098;42.678;23.364;2023-05-16T00:21:01;27.10;;;13.10;;
6133;SDS011;3098;42.678;23.364;2023-05-16T00:23:29;22.23;;;13.45;;
6133;SDS011;3098;42.678;23.364;2023-05-16T00:25:56;30.20;;;14.05;;
6133;SDS011;3098;42.678;23.364;2023-05-16T00:28:24;28.38;;;14.50;;
6133;SDS011;3098;42.678;23.364;2023-05-16T00:30:52;22.67;;;13.68;;
6133;SDS011;3098;42.678;23.364;2023-05-16T00:33:18;28.75;;;15.05;;
6133;SDS011;3098;42.678;23.364;2023-05-16T00:35:45;25.30;;;14.38;;
6133;SDS011;3098;42.678;23.364;2023-05-16T00:38:13;24.27;;;14.07;;
6133;SDS011;3098;42.678;23.364;2023-05-16T00:40:40;22.75;;;13.68;;
6133;SDS011;3098;42.678;23.364;2023-05-16T00:43:07;27.20;;;13.57;;
6133;SDS011;3098;42.678;23.364;2023-05-16T00:45:36;24.08;;;14.43;;
6133;SDS011;3098;42.678;23.364;2023-05-16T00:48:03;28.60;;;13.95;;
6133;SDS011;3098;42.678;23.364;2023-05-16T00:50:31;32.20;;;14.80;;
6133;SDS011;3098;42.678;23.364;2023-05-16T00:52:59;22.08;;;13.60;;
6133;SDS011;3098;42.678;23.364;2023-05-16T00:55:27;27.33;;;13.48;;
6133;SDS011;3098;42.678;23.364;2023-05-16T00:57:54;38.83;;;14.68;;
6133;SDS011;3098;42.678;23.364;2023-05-16T01:00:23;27.13;;;14.40;;
6133;SDS011;3098;42.678;23.364;2023-05-16T01:02:52;27.40;;;14.27;;
6133;SDS011;3098;42.678;23.364;2023-05-16T01:05:19;28.52;;;14.13;;
6133;SDS011;3098;42.678;23.364;2023-05-16T01:07:47;25.15;;;14.25;;
6133;SDS011;3098;42.678;23.364;2023-05-16T01:10:14;31.58;;;14.13;;
6133;SDS011;3098;42.678;23.364;2023-05-16T01:12:43;22.23;;;13.52;;
6133;SDS011;3098;42.678;23.364;2023-05-16T01:15:21;27.40;;;14.45;;
6133;SDS011;3098;42.678;23.364;2023-05-16T01:17:55;31.85;;;15.60;;
6133;SDS011;3098;42.678;23.364;2023-05-16T01:20:29;30.30;;;15.40;;
6133;SDS011;3098;42.678;23.364;2023-05-16T01:23:10;32.35;;;14.90;;
6133;SDS011;3098;42.678;23.364;2023-05-16T01:25:55;22.90;;;14.25;;
6133;SDS011;3098;42.678;23.364;2023-05-16T01:28:32;25.05;;;14.48;;
6133;SDS011;3098;42.678;23.364;2023-05-16T01:31:00;26.73;;;13.93;;
6133;SDS011;3098;42.678;23.364;2023-05-16T01:33:27;25.58;;;13.93;;
6133;SDS011;3098;42.678;23.364;2023-05-16T01:35:55;25.70;;;14.00;;
6133;SDS011;3098;42.678;23.364;2023-05-16T01:38:31;26.10;;;14.55;;
6133;SDS011;3098;42.678;23.364;2023-05-16T01:41:07;25.35;;;14.60;;
6133;SDS011;3098;42.678;23.364;2023-05-16T01:43:41;25.50;;;13.77;;
6133;SDS011;3098;42.678;23.364;2023-05-16T01:46:10;26.30;;;14.68;;
6133;SDS011;3098;42.678;23.364;2023-05-16T01:48:42;24.83;;;14.45;;
6133;SDS011;3098;42.678;23.364;2023-05-16T01:51:15;29.13;;;14.15;;
6133;SDS011;3098;42.678;23.364;2023-05-16T01:53:43;26.30;;;13.75;;
6133;SDS011;3098;42.678;23.364;2023-05-16T01:56:12;29.00;;;14.18;;
6133;SDS011;3098;42.678;23.364;2023-05-16T01:58:41;26.55;;;12.48;;
6133;SDS011;3098;42.678;23.364;2023-05-16T02:01:11;22.90;;;11.80;;
6133;SDS011;3098;42.678;23.364;2023-05-16T02:03:39;20.58;;;13.13;;
6133;SDS011;3098;42.678;23.364;2023-05-16T02:06:06;21.83;;;12.25;;
6133;SDS011;3098;42.678;23.364;2023-05-16T02:08:33;28.50;;;11.80;;
6133;SDS011;3098;42.678;23.364;2023-05-16T02:11:00;22.33;;;12.23;;
6133;SDS011;3098;42.678;23.364;2023-05-16T02:13:29;21.65;;;12.32;;
6133;SDS011;3098;42.678;23.364;2023-05-16T02:15:56;27.45;;;12.13;;
6133;SDS011;3098;42.678;23.364;2023-05-16T02:18:23;26.63;;;13.60;;
6133;SDS011;3098;42.678;23.364;2023-05-16T02:20:50;20.95;;;12.27;;
6133;SDS011;3098;42.678;23.364;2023-05-16T02:23:17;28.13;;;12.43;;
6133;SDS011;3098;42.678;23.364;2023-05-16T02:25:44;20.25;;;11.18;;
6133;SDS011;3098;42.678;23.364;2023-05-16T02:28:11;18.75;;;11.00;;
6133;SDS011;3098;42.678;23.364;2023-05-16T02:30:40;22.23;;;10.55;;
6133;SDS011;3098;42.678;23.364;2023-05-16T02:33:07;21.63;;;10.63;;
6133;SDS011;3098;42.678;23.364;2023-05-16T02:35:34;26.35;;;11.82;;
6133;SDS011;3098;42.678;23.364;2023-05-16T02:38:01;18.85;;;11.32;;
6133;SDS011;3098;42.678;23.364;2023-05-16T02:40:28;20.80;;;10.73;;
6133;SDS011;3098;42.678;23.364;2023-05-16T02:42:55;21.80;;;10.95;;
6133;SDS011;3098;42.678;23.364;2023-05-16T02:45:23;20.90;;;10.13;;
6133;SDS011;3098;42.678;23.364;2023-05-16T02:47:52;22.45;;;10.80;;
6133;SDS011;3098;42.678;23.364;2023-05-16T02:50:19;17.48;;;10.20;;
6133;SDS011;3098;42.678;23.364;2023-05-16T02:52:46;17.63;;;10.30;;
6133;SDS011;3098;42.678;23.364;2023-05-16T02:55:14;18.75;;;10.32;;
6133;SDS011;3098;42.678;23.364;2023-05-16T02:57:41;17.92;;;9.52;;
6133;SDS011;3098;42.678;23.364;2023-05-16T03:00:08;14.50;;;9.70;;
6133;SDS011;3098;42.678;23.364;2023-05-16T03:02:37;20.08;;;10.70;;
6133;SDS011;3098;42.678;23.364;2023-05-16T03:05:06;18.88;;;9.50;;
6133;SDS011;3098;42.678;23.364;2023-05-16T03:07:34;16.98;;;9.68;;
6133;SDS011;3098;42.678;23.364;2023-05-16T03:10:01;16.02;;;9.65;;
6133;SDS011;3098;42.678;23.364;2023-05-16T03:12:29;15.57;;;9.65;;
6133;SDS011;3098;42.678;23.364;2023-05-16T03:14:56;17.05;;;10.48;;
6133;SDS011;3098;42.678;23.364;2023-05-16T03:17:24;16.30;;;9.40;;
6133;SDS011;3098;42.678;23.364;2023-05-16T03:19:51;15.93;;;9.63;;
6133;SDS011;3098;42.678;23.364;2023-05-16T03:22:20;18.58;;;9.57;;
6133;SDS011;3098;42.678;23.364;2023-05-16T03:24:47;18.20;;;9.65;;
6133;SDS011;3098;42.678;23.364;2023-05-16T03:27:14;18.05;;;9.18;;
6133;SDS011;3098;42.678;23.364;2023-05-16T03:29:42;18.38;;;9.63;;
6133;SDS011;3098;42.678;23.364;2023-05-16T03:32:10;15.63;;;9.73;;
6133;SDS011;3098;42.678;23.364;2023-05-16T03:34:37;19.05;;;10.30;;
6133;SDS011;3098;42.678;23.364;2023-05-16T03:37:05;18.85;;;9.38;;
6133;SDS011;3098;42.678;23.364;2023-05-16T03:39:36;16.73;;;9.68;;
6133;SDS011;3098;42.678;23.364;2023-05-16T03:42:03;17.17;;;10.07;;
6133;SDS011;3098;42.678;23.364;2023-05-16T03:44:31;25.95;;;10.13;;
6133;SDS011;3098;42.678;23.364;2023-05-16T03:46:58;20.85;;;9.98;;
6133;SDS011;3098;42.678;23.364;2023-05-16T03:49:25;20.27;;;10.13;;
6133;SDS011;3098;42.678;23.364;2023-05-16T03:51:53;23.58;;;9.98;;
6133;SDS011;3098;42.678;23.364;2023-05-16T03:54:21;20.08;;;11.32;;
6133;SDS011;3098;42.678;23.364;2023-05-16T03:56:50;21.15;;;10.73;;
6133;SDS011;3098;42.678;23.364;2023-05-16T03:59:17;22.17;;;11.50;;
6133;SDS011;3098;42.678;23.364;2023-05-16T04:01:44;20.48;;;9.45;;
6133;SDS011;3098;42.678;23.364;2023-05-16T04:04:12;24.50;;;11.88;;
6133;SDS011;3098;42.678;23.364;2023-05-16T04:06:39;22.83;;;10.93;;
6133;SDS011;3098;42.678;23.364;2023-05-16T04:09:06;23.73;;;10.40;;
6133;SDS011;3098;42.678;23.364;2023-05-16T04:11:33;18.35;;;10.15;;
6133;SDS011;3098;42.678;23.364;2023-05-16T04:14:02;24.52;;;11.15;;
6133;SDS011;3098;42.678;23.364;2023-05-16T04:16:29;18.95;;;10.80;;
6133;SDS011;3098;42.678;23.364;2023-05-16T04:18:56;20.73;;;10.85;;
6133;SDS011;3098;42.678;23.364;2023-05-16T04:21:23;16.98;;;10.27;;
6133;SDS011;3098;42.678;23.364;2023-05-16T04:23:50;20.15;;;11.57;;
6133;SDS011;3098;42.678;23.364;2023-05-16T04:26:17;22.38;;;11.82;;
6133;SDS011;3098;42.678;23.364;2023-05-16T04:28:46;21.85;;;11.27;;
6133;SDS011;3098;42.678;23.364;2023-05-16T04:31:15;21.25;;;11.73;;
6133;SDS011;3098;42.678;23.364;2023-05-16T04:33:43;21.35;;;11.63;;
6133;SDS011;3098;42.678;23.364;2023-05-16T04:36:10;20.08;;;10.63;;
6133;SDS011;3098;42.678;23.364;2023-05-16T04:38:36;18.80;;;10.32;;
6133;SDS011;3098;42.678;23.364;2023-05-16T04:41:04;18.02;;;10.25;;
6133;SDS011;3098;42.678;23.364;2023-05-16T04:43:31;19.80;;;10.88;;
6133;SDS011;3098;42.678;23.364;2023-05-16T04:45:58;21.30;;;11.25;;
6133;SDS011;3098;42.678;23.364;2023-05-16T04:48:26;19.77;;;10.82;;
6133;SDS011;3098;42.678;23.364;2023-05-16T04:50:53;21.52;;;11.07;;
6133;SDS011;3098;42.678;23.364;2023-05-16T04:53:21;21.50;;;10.65;;
6133;SDS011;3098;42.678;23.364;2023-05-16T04:55:48;22.67;;;11.13;;
6133;SDS011;3098;42.678;23.364;2023-05-16T04:58:15;21.33;;;11.40;;
6133;SDS011;3098;42.678;23.364;2023-05-16T05:00:42;25.33;;;11.32;;
6133;SDS011;3098;42.678;23.364;2023-05-16T05:03:09;19.83;;;11.00;;
6133;SDS011;3098;42.678;23.364;2023-05-16T05:05:37;18.13;;;10.48;;
6133;SDS011;3098;42.678;23.364;2023-05-16T05:08:05;19.13;;;9.75;;
6133;SDS011;3098;42.678;23.364;2023-05-16T05:10:32;24.75;;;10.75;;
6133;SDS011;3098;42.678;23.364;2023-05-16T05:12:59;20.75;;;10.18;;
6133;SDS011;3098;42.678;23.364;2023-05-16T05:15:26;22.05;;;10.63;;
6133;SDS011;3098;42.678;23.364;2023-05-16T05:17:53;17.15;;;10.32;;
6133;SDS011;3098;42.678;23.364;2023-05-16T05:20:20;20.95;;;10.90;;
6133;SDS011;3098;42.678;23.364;2023-05-16T05:22:50;20.48;;;11.43;;
6133;SDS011;3098;42.678;23.364;2023-05-16T05:25:17;20.77;;;11.05;;
6133;SDS011;3098;42.678;23.364;2023-05-16T05:27:45;26.83;;;10.93;;
6133;SDS011;3098;42.678;23.364;2023-05-16T05:30:12;19.20;;;10.40;;
6133;SDS011;3098;42.678;23.364;2023-05-16T05:32:39;17.90;;;10.38;;
6133;SDS011;3098;42.678;23.364;2023-05-16T05:35:06;16.95;;;10.35;;
6133;SDS011;3098;42.678;23.364;2023-05-16T05:37:34;21.27;;;10.98;;
6133;SDS011;3098;42.678;23.364;2023-05-16T05:40:03;22.23;;;10.00;;
6133;SDS011;3098;42.678;23.364;2023-05-16T05:42:31;24.90;;;11.25;;
6133;SDS011;3098;42.678;23.364;2023-05-16T05:44:59;25.90;;;10.93;;
6133;SDS011;3098;42.678;23.364;2023-05-16T05:47:26;22.10;;;10.25;;
6133;SDS011;3098;42.678;23.364;2023-05-16T05:49:53;25.73;;;10.85;;
6133;SDS011;3098;42.678;23.364;2023-05-16T05:52:20;20.08;;;11.30;;
6133;SDS011;3098;42.678;23.364;2023-05-16T05:54:47;25.63;;;10.00;;
6133;SDS011;3098;42.678;23.364;2023-05-16T05:57:16;18.02;;;10.15;;
6133;SDS011;3098;42.678;23.364;2023-05-16T05:59:43;25.70;;;9.80;;
6133;SDS011;3098;42.678;23.364;2023-05-16T06:02:11;16.58;;;9.85;;
6133;SDS011;3098;42.678;23.364;2023-05-16T06:04:38;23.20;;;10.38;;
6133;SDS011;3098;42.678;23.364;2023-05-16T06:07:07;18.98;;;9.27;;
6133;SDS011;3098;42.678;23.364;2023-05-16T06:09:34;21.38;;;9.65;;
6133;SDS011;3098;42.678;23.364;2023-05-16T06:12:02;14.80;;;8.60;;
6133;SDS011;3098;42.678;23.364;2023-05-16T06:14:31;14.75;;;9.02;;
6133;SDS011;3098;42.678;23.364;2023-05-16T06:16:59;16.20;;;8.40;;
6133;SDS011;3098;42.678;23.364;2023-05-16T06:19:26;24.88;;;9.65;;
6133;SDS011;3098;42.678;23.364;2023-05-16T06:21:54;15.95;;;8.82;;
6133;SDS011;3098;42.678;23.364;2023-05-16T06:24:21;21.05;;;8.80;;
6133;SDS011;3098;42.678;23.364;2023-05-16T06:26:48;17.67;;;9.43;;
6133;SDS011;3098;42.678;23.364;2023-05-16T06:29:15;16.13;;;8.80;;
6133;SDS011;3098;42.678;23.364;2023-05-16T06:31:44;18.77;;;9.10;;
6133;SDS011;3098;42.678;23.364;2023-05-16T06:34:12;17.90;;;8.52;;
6133;SDS011;3098;42.678;23.364;2023-05-16T06:36:39;23.13;;;10.23;;
6133;SDS011;3098;42.678;23.364;2023-05-16T06:39:06;15.93;;;9.20;;
6133;SDS011;3098;42.678;23.364;2023-05-16T06:41:34;26.40;;;9.68;;
6133;SDS011;3098;42.678;23.364;2023-05-16T06:44:01;19.73;;;10.02;;
6133;SDS011;3098;42.678;23.364;2023-05-16T06:46:29;19.30;;;8.95;;
6133;SDS011;3098;42.678;23.364;2023-05-16T06:48:58;16.63;;;9.65;;
6133;SDS011;3098;42.678;23.364;2023-05-16T06:51:25;17.65;;;9.50;;
6133;SDS011;3098;42.678;23.364;2023-05-16T06:53:52;17.50;;;8.32;;
6133;SDS011;3098;42.678;23.364;2023-05-16T06:56:19;17.80;;;8.68;;
6133;SDS011;3098;42.678;23.364;2023-05-16T06:58:46;15.73;;;7.85;;
6133;SDS011;3098;42.678;23.364;2023-05-16T07:01:15;17.65;;;9.10;;
6133;SDS011;3098;42.678;23.364;2023-05-16T07:03:42;17.75;;;8.95;;
6133;SDS011;3098;42.678;23.364;2023-05-16T07:06:10;20.40;;;8.95;;
6133;SDS011;3098;42.678;23.364;2023-05-16T07:08:37;22.10;;;8.95;;
6133;SDS011;3098;42.678;23.364;2023-05-16T07:11:05;14.45;;;8.00;;
6133;SDS011;3098;42.678;23.364;2023-05-16T07:13:31;16.88;;;7.90;;
6133;SDS011;3098;42.678;23.364;2023-05-16T07:15:59;13.82;;;8.07;;
6133;SDS011;3098;42.678;23.364;2023-05-16T07:18:26;15.82;;;8.02;;
6133;SDS011;3098;42.678;23.364;2023-05-16T07:20:55;16.63;;;8.00;;
6133;SDS011;3098;42.678;23.364;2023-05-16T07:23:24;12.20;;;7.45;;
6133;SDS011;3098;42.678;23.364;2023-05-16T07:25:52;18.30;;;8.77;;
6133;SDS011;3098;42.678;23.364;2023-05-16T07:28:19;16.45;;;8.32;;
6133;SDS011;3098;42.678;23.364;2023-05-16T07:30:47;13.20;;;8.13;;
6133;SDS011;3098;42.678;23.364;2023-05-16T07:33:14;18.63;;;8.13;;
6133;SDS011;3098;42.678;23.364;2023-05-16T07:35:42;14.20;;;8.40;;
6133;SDS011;3098;42.678;23.364;2023-05-16T07:38:09;17.02;;;8.00;;
6133;SDS011;3098;42.678;23.364;2023-05-16T07:40:38;14.32;;;7.57;;
6133;SDS011;3098;42.678;23.364;2023-05-16T07:43:05;13.48;;;8.00;;
6133;SDS011;3098;42.678;23.364;2023-05-16T07:45:32;17.15;;;8.65;;
6133;SDS011;3098;42.678;23.364;2023-05-16T07:47:59;12.57;;;7.57;;
6133;SDS011;3098;42.678;23.364;2023-05-16T07:50:26;15.90;;;8.80;;
6133;SDS011;3098;42.678;23.364;2023-05-16T07:52:53;16.10;;;7.47;;
6133;SDS011;3098;42.678;23.364;2023-05-16T07:55:21;20.58;;;7.95;;
6133;SDS011;3098;42.678;23.364;2023-05-16T07:57:51;13.23;;;7.78;;
6133;SDS011;3098;42.678;23.364;2023-05-16T08:00:19;15.40;;;8.18;;
6133;SDS011;3098;42.678;23.364;2023-05-16T08:02:46;18.35;;;8.20;;
6133;SDS011;3098;42.678;23.364;2023-05-16T08:05:14;14.48;;;8.05;;
6133;SDS011;3098;42.678;23.364;2023-05-16T08:07:41;21.73;;;7.82;;
6133;SDS011;3098;42.678;23.364;2023-05-16T08:10:08;17.73;;;7.75;;
6133;SDS011;3098;42.678;23.364;2023-05-16T08:12:35;14.20;;;7.80;;
6133;SDS011;3098;42.678;23.364;2023-05-16T08:15:04;16.85;;;8.20;;
6133;SDS011;3098;42.678;23.364;2023-05-16T08:17:33;23.38;;;8.32;;
6133;SDS011;3098;42.678;23.364;2023-05-16T08:20:01;11.82;;;7.30;;
6133;SDS011;3098;42.678;23.364;2023-05-16T08:22:29;19.15;;;8.02;;
6133;SDS011;3098;42.678;23.364;2023-05-16T08:24:57;17.92;;;7.90;;
6133;SDS011;3098;42.678;23.364;2023-05-16T08:27:24;18.27;;;8.00;;
6133;SDS011;3098;42.678;23.364;2023-05-16T08:29:52;21.95;;;8.00;;
6133;SDS011;3098;42.678;23.364;2023-05-16T08:32:22;17.02;;;8.23;;
6133;SDS011;3098;42.678;23.364;2023-05-16T08:34:49;24.17;;;8.60;;
6133;SDS011;3098;42.678;23.364;2023-05-16T08:37:16;21.20;;;8.52;;
6133;SDS011;3098;42.678;23.364;2023-05-16T08:39:44;19.10;;;7.93;;
6133;SDS011;3098;42.678;23.364;2023-05-16T08:42:11;14.55;;;7.25;;
6133;SDS011;3098;42.678;23.364;2023-05-16T08:44:38;16.13;;;7.82;;
6133;SDS011;3098;42.678;23.364;2023-05-16T08:47:09;17.52;;;7.47;;
6133;SDS011;3098;42.678;23.364;2023-05-16T08:49:39;15.35;;;8.23;;
6133;SDS011;3098;42.678;23.364;2023-05-16T08:52:08;15.50;;;8.55;;
6133;SDS011;3098;42.678;23.364;2023-05-16T08:54:36;11.65;;;7.30;;
6133;SDS011;3098;42.678;23.364;2023-05-16T08:57:04;18.58;;;7.63;;
6133;SDS011;3098;42.678;23.364;2023-05-16T08:59:32;15.95;;;7.28;;
6133;SDS011;3098;42.678;23.364;2023-05-16T09:02:00;15.85;;;7.15;;
6133;SDS011;3098;42.678;23.364;2023-05-16T09:04:28;14.63;;;6.88;;
6133;SDS011;3098;42.678;23.364;2023-05-16T09:06:56;11.02;;;6.90;;
6133;SDS011;3098;42.678;23.364;2023-05-16T09:09:23;17.10;;;7.00;;
6133;SDS011;3098;42.678;23.364;2023-05-16T09:11:51;14.88;;;7.47;;
6133;SDS011;3098;42.678;23.364;2023-05-16T09:14:18;13.38;;;6.78;;
6133;SDS011;3098;42.678;23.364;2023-05-16T09:16:45;17.02;;;7.47;;
6133;SDS011;3098;42.678;23.364;2023-05-16T09:19:31;18.85;;;7.57;;
6133;SDS011;3098;42.678;23.364;2023-05-16T09:22:06;14.25;;;7.75;;
6133;SDS011;3098;42.678;23.364;2023-05-16T09:24:37;18.85;;;7.10;;
6133;SDS011;3098;42.678;23.364;2023-05-16T09:27:08;13.18;;;7.50;;
6133;SDS011;3098;42.678;23.364;2023-05-16T09:29:36;16.00;;;6.70;;
6133;SDS011;3098;42.678;23.364;2023-05-16T09:32:09;17.98;;;7.32;;
6133;SDS011;3098;42.678;23.364;2023-05-16T09:34:38;14.70;;;6.65;;
6133;SDS011;3098;42.678;23.364;2023-05-16T09:37:10;19.38;;;7.07;;
6133;SDS011;3098;42.678;23.364;2023-05-16T09:39:39;11.50;;;6.78;;
6133;SDS011;3098;42.678;23.364;2023-05-16T09:42:09;10.30;;;6.55;;
6133;SDS011;3098;42.678;23.364;2023-05-16T09:44:38;12.43;;;6.53;;
6133;SDS011;3098;42.678;23.364;2023-05-16T09:47:05;12.68;;;6.38;;
6133;SDS011;3098;42.678;23.364;2023-05-16T09:49:32;15.35;;;6.70;;
6133;SDS011;3098;42.678;23.364;2023-05-16T09:52:03;11.15;;;6.40;;
6133;SDS011;3098;42.678;23.364;2023-05-16T09:54:33;10.73;;;6.22;;
6133;SDS011;3098;42.678;23.364;2023-05-16T09:57:01;10.27;;;6.15;;
6133;SDS011;3098;42.678;23.364;2023-05-16T09:59:29;16.88;;;7.47;;
6133;SDS011;3098;42.678;23.364;2023-05-16T10:01:56;10.32;;;6.25;;
6133;SDS011;3098;42.678;23.364;2023-05-16T10:04:25;16.52;;;6.53;;
6133;SDS011;3098;42.678;23.364;2023-05-16T10:06:53;19.42;;;7.53;;
6133;SDS011;3098;42.678;23.364;2023-05-16T10:09:22;19.33;;;6.47;;
6133;SDS011;3098;42.678;23.364;2023-05-16T10:11:52;11.23;;;6.07;;
6133;SDS011;3098;42.678;23.364;2023-05-16T10:14:21;12.85;;;6.60;;
6133;SDS011;3098;42.678;23.364;2023-05-16T10:16:49;16.17;;;6.68;;
6133;SDS011;3098;42.678;23.364;2023-05-16T10:19:19;8.60;;;5.82;;
6133;SDS011;3098;42.678;23.364;2023-05-16T10:21:50;11.40;;;6.47;;
6133;SDS011;3098;42.678;23.364;2023-05-16T10:24:22;11.10;;;6.72;;
6133;SDS011;3098;42.678;23.364;2023-05-16T10:26:56;16.13;;;6.10;;
6133;SDS011;3098;42.678;23.364;2023-05-16T10:29:23;11.23;;;6.13;;
6133;SDS011;3098;42.678;23.364;2023-05-16T10:31:51;11.70;;;5.95;;
6133;SDS011;3098;42.678;23.364;2023-05-16T10:34:20;18.98;;;7.35;;
6133;SDS011;3098;42.678;23.364;2023-05-16T10:36:47;15.13;;;6.55;;
6133;SDS011;3098;42.678;23.364;2023-05-16T10:39:16;14.55;;;6.20;;
6133;SDS011;3098;42.678;23.364;2023-05-16T10:41:43;8.68;;;6.13;;
6133;SDS011;3098;42.678;23.364;2023-05-16T10:44:15;11.32;;;6.70;;
6133;SDS011;3098;42.678;23.364;2023-05-16T10:46:42;13.68;;;6.80;;
6133;SDS011;3098;42.678;23.364;2023-05-16T10:49:19;8.85;;;6.28;;
6133;SDS011;3098;42.678;23.364;2023-05-16T10:51:48;16.02;;;6.47;;
6133;SDS011;3098;42.678;23.364;2023-05-16T10:54:33;14.68;;;6.53;;
6133;SDS011;3098;42.678;23.364;2023-05-16T10:57:04;10.48;;;6.30;;
6133;SDS011;3098;42.678;23.364;2023-05-16T10:59:41;17.42;;;6.50;;
6133;SDS011;3098;42.678;23.364;2023-05-16T11:02:22;12.57;;;6.70;;
6133;SDS011;3098;42.678;23.364;2023-05-16T11:04:51;14.40;;;6.47;;
6133;SDS011;3098;42.678;23.364;2023-05-16T11:07:20;14.52;;;6.13;;
6133;SDS011;3098;42.678;23.364;2023-05-16T11:10:02;13.90;;;6.32;;
6133;SDS011;3098;42.678;23.364;2023-05-16T11:12:42;15.32;;;6.20;;
6133;SDS011;3098;42.678;23.364;2023-05-16T11:15:22;11.13;;;6.78;;
6133;SDS011;3098;42.678;23.364;2023-05-16T11:18:02;10.38;;;6.30;;
6133;SDS011;3098;42.678;23.364;2023-05-16T11:20:31;15.98;;;7.00;;
6133;SDS011;3098;42.678;23.364;2023-05-16T11:23:21;14.32;;;6.60;;
6133;SDS011;3098;42.678;23.364;2023-05-16T11:25:54;11.90;;;7.13;;
6133;SDS011;3098;42.678;23.364;2023-05-16T11:28:22;13.63;;;7.00;;
6133;SDS011;3098;42.678;23.364;2023-05-16T11:30:53;14.82;;;7.22;;
6133;SDS011;3098;42.678;23.364;2023-05-16T11:33:22;12.43;;;6.50;;
6133;SDS011;3098;42.678;23.364;2023-05-16T11:36:03;16.42;;;6.55;;
6133;SDS011;3098;42.678;23.364;2023-05-16T11:38:32;15.20;;;6.88;;
6133;SDS011;3098;42.678;23.364;2023-05-16T11:41:03;13.05;;;6.90;;
6133;SDS011;3098;42.678;23.364;2023-05-16T11:43:38;12.80;;;7.22;;
6133;SDS011;3098;42.678;23.364;2023-05-16T11:46:09;11.73;;;6.60;;
6133;SDS011;3098;42.678;23.364;2023-05-16T11:48:37;12.40;;;6.72;;
6133;SDS011;3098;42.678;23.364;2023-05-16T11:51:04;18.52;;;7.07;;
6133;SDS011;3098;42.678;23.364;2023-05-16T11:53:32;21.65;;;6.95;;
6133;SDS011;3098;42.678;23.364;2023-05-16T11:55:59;12.00;;;6.75;;
6133;SDS011;3098;42.678;23.364;2023-05-16T11:58:27;17.42;;;6.72;;
6133;SDS011;3098;42.678;23.364;2023-05-16T12:00:54;14.52;;;6.13;;
6133;SDS011;3098;42.678;23.364;2023-05-16T12:03:24;17.98;;;6.60;;
6133;SDS011;3098;42.678;23.364;2023-05-16T12:05:51;14.20;;;6.57;;
6133;SDS011;3098;42.678;23.364;2023-05-16T12:08:19;12.20;;;6.97;;
6133;SDS011;3098;42.678;23.364;2023-05-16T12:10:49;16.02;;;7.40;;
6133;SDS011;3098;42.678;23.364;2023-05-16T12:13:17;9.93;;;6.63;;
6133;SDS011;3098;42.678;23.364;2023-05-16T12:15:46;11.05;;;6.47;;
6133;SDS011;3098;42.678;23.364;2023-05-16T12:18:14;16.90;;;7.00;;
6133;SDS011;3098;42.678;23.364;2023-05-16T12:20:44;15.32;;;6.55;;
6133;SDS011;3098;42.678;23.364;2023-05-16T12:23:11;18.27;;;6.93;;
6133;SDS011;3098;42.678;23.364;2023-05-16T12:25:39;9.82;;;6.38;;
6133;SDS011;3098;42.678;23.364;2023-05-16T12:28:10;15.75;;;6.47;;
6133;SDS011;3098;42.678;23.364;2023-05-16T12:30:39;14.32;;;6.85;;
6133;SDS011;3098;42.678;23.364;2023-05-16T12:33:11;17.33;;;6.50;;
6133;SDS011;3098;42.678;23.364;2023-05-16T12:35:40;12.55;;;6.72;;
6133;SDS011;3098;42.678;23.364;2023-05-16T12:38:10;11.05;;;6.03;;
6133;SDS011;3098;42.678;23.364;2023-05-16T12:40:41;14.68;;;6.05;;
6133;SDS011;3098;42.678;23.364;2023-05-16T12:43:13;11.25;;;5.95;;
6133;SDS011;3098;42.678;23.364;2023-05-16T12:45:40;13.52;;;5.97;;
6133;SDS011;3098;42.678;23.364;2023-05-16T12:48:11;8.80;;;6.13;;
6133;SDS011;3098;42.678;23.364;2023-05-16T12:50:40;12.45;;;6.43;;
6133;SDS011;3098;42.678;23.364;2023-05-16T12:53:11;10.70;;;5.85;;
6133;SDS011;3098;42.678;23.364;2023-05-16T12:55:39;17.42;;;5.63;;
6133;SDS011;3098;42.678;23.364;2023-05-16T12:58:07;18.38;;;6.35;;
6133;SDS011;3098;42.678;23.364;2023-05-16T13:00:35;14.40;;;6.72;;
6133;SDS011;3098;42.678;23.364;2023-05-16T13:03:03;14.75;;;7.13;;
6133;SDS011;3098;42.678;23.364;2023-05-16T13:05:32;14.68;;;6.85;;
6133;SDS011;3098;42.678;23.364;2023-05-16T13:08:00;12.32;;;7.07;;
6133;SDS011;3098;42.678;23.364;2023-05-16T13:10:29;18.00;;;7.60;;
6133;SDS011;3098;42.678;23.364;2023-05-16T13:12:57;12.98;;;7.22;;
6133;SDS011;3098;42.678;23.364;2023-05-16T13:15:25;19.92;;;7.70;;
6133;SDS011;3098;42.678;23.364;2023-05-16T13:17:53;14.40;;;7.50;;
6133;SDS011;3098;42.678;23.364;2023-05-16T13:20:20;21.40;;;7.50;;
6133;SDS011;3098;42.678;23.364;2023-05-16T13:22:47;18.83;;;7.75;;
6133;SDS011;3098;42.678;23.364;2023-05-16T13:25:15;17.88;;;6.97;;
6133;SDS011;3098;42.678;23.364;2023-05-16T13:27:44;21.15;;;7.35;;
6133;SDS011;3098;42.678;23.364;2023-05-16T13:30:13;11.52;;;5.80;;
6133;SDS011;3098;42.678;23.364;2023-05-16T13:32:41;15.57;;;7.13;;
6133;SDS011;3098;42.678;23.364;2023-05-16T13:35:08;11.13;;;6.82;;
6133;SDS011;3098;42.678;23.364;2023-05-16T13:37:36;12.32;;;6.78;;
6133;SDS011;3098;42.678;23.364;2023-05-16T13:40:04;15.55;;;6.63;;
6133;SDS011;3098;42.678;23.364;2023-05-16T13:42:34;14.35;;;6.82;;
6133;SDS011;3098;42.678;23.364;2023-05-16T13:45:05;15.82;;;6.55;;
6133;SDS011;3098;42.678;23.364;2023-05-16T13:47:37;16.42;;;6.55;;
6133;SDS011;3098;42.678;23.364;2023-05-16T13:50:04;20.33;;;7.20;;
6133;SDS011;3098;42.678;23.364;2023-05-16T13:52:34;13.18;;;6.05;;
6133;SDS011;3098;42.678;23.364;2023-05-16T13:55:01;14.27;;;6.60;;
6133;SDS011;3098;42.678;23.364;2023-05-16T13:57:28;17.58;;;6.97;;
6133;SDS011;3098;42.678;23.364;2023-05-16T13:59:57;17.95;;;6.97;;
6133;SDS011;3098;42.678;23.364;2023-05-16T14:02:26;17.52;;;8.18;;
6133;SDS011;3098;42.678;23.364;2023-05-16T14:04:52;13.80;;;7.25;;
6133;SDS011;3098;42.678;23.364;2023-05-16T14:07:19;11.98;;;7.43;;
6133;SDS011;3098;42.678;23.364;2023-05-16T14:09:46;17.98;;;8.73;;
6133;SDS011;3098;42.678;23.364;2023-05-16T14:12:13;16.00;;;8.25;;
6133;SDS011;3098;42.678;23.364;2023-05-16T14:14:40;14.65;;;8.23;;
6133;SDS011;3098;42.678;23.364;2023-05-16T14:17:07;16.05;;;7.10;;
6133;SDS011;3098;42.678;23.364;2023-05-16T14:19:36;24.85;;;7.93;;
6133;SDS011;3098;42.678;23.364;2023-05-16T14:22:03;16.95;;;8.40;;
6133;SDS011;3098;42.678;23.364;2023-05-16T14:24:31;27.15;;;8.43;;
6133;SDS011;3098;42.678;23.364;2023-05-16T14:26:59;19.50;;;8.10;;
6133;SDS011;3098;42.678;23.364;2023-05-16T14:29:28;22.95;;;8.30;;
6133;SDS011;3098;42.678;23.364;2023-05-16T14:31:55;17.88;;;8.98;;
6133;SDS011;3098;42.678;23.364;2023-05-16T14:34:23;24.75;;;8.60;;
6133;SDS011;3098;42.678;23.364;2023-05-16T14:36:51;25.80;;;10.25;;
6133;SDS011;3098;42.678;23.364;2023-05-16T14:39:18;20.33;;;8.45;;
6133;SDS011;3098;42.678;23.364;2023-05-16T14:41:46;19.75;;;8.52;;
6133;SDS011;3098;42.678;23.364;2023-05-16T14:44:13;16.30;;;8.10;;
6133;SDS011;3098;42.678;23.364;2023-05-16T14:46:40;18.40;;;8.88;;
6133;SDS011;3098;42.678;23.364;2023-05-16T14:49:08;20.27;;;9.05;;
6133;SDS011;3098;42.678;23.364;2023-05-16T14:51:35;22.80;;;10.38;;